Latest Weather Observations for Roxby Downs

IDS60801

Issued at 7:04 pm CDT Sunday 1 February 2015 (issued every 30 minutes, with the page automatically refreshed every 10 minutes)

About weather observations | Map of weather stations | Latest weather observations for SA | Other Formats
Station Details ID: 016096 Name: OLYMPIC DAM AERODROME Lat: -30.48 Lon: 136.88 Height: 98.5 m
Data from the previous 72 hours. | See also: Recent months at Roxby Downs
Date/Time
CDT
Temp
°C
App
Temp
°C
Dew
Point
Rel
Hum
%
Delta-T
°C
Wind Press
QNH
hPa
Press
MSL
hPa
Rain
since 9 am
mm
Dir
 
Spd
km/h
Gust
km/h
Spd
kts
Gust
kts
01/07:00pm 28.3 21.0 4.6 22 12.2 S 32 46 17 25 1013.5 1012.9 0.0
01/06:30pm 29.0 21.7 4.5 21 12.6 SSE 32 44 17 24 1013.4 1012.8 0.0
01/06:00pm 29.2 21.5 3.2 19 13.1 S 33 46 18 25 1013.2 1012.6 0.0
01/05:30pm 29.1 21.7 3.9 20 12.9 SSE 32 43 17 23 1013.2 1012.6 0.0
01/05:00pm 29.5 22.6 2.7 18 13.4 S 28 43 15 23 1013.3 1012.7 0.0
01/04:33pm 29.8 22.4 2.1 17 13.8 S 30 48 16 26 1013.3 1012.7 0.0
01/04:30pm 29.6 23.0 2.0 17 13.7 S 26 37 14 20 1013.3 1012.7 0.0
01/04:05pm 29.2 21.5 -3.1 12 14.6 S 28 46 15 25 1013.3 1012.7 0.0
01/04:00pm 29.3 21.4 -1.9 13 14.4 S 30 46 16 25 1013.3 1012.7 0.0
01/03:30pm 29.4 22.5 0.1 15 14.0 S 26 41 14 22 1013.4 1012.8 0.0
01/03:00pm 28.7 22.7 3.5 20 12.7 S 24 37 13 20 1013.8 1013.2 0.0
01/02:30pm 28.1 22.0 3.0 20 12.5 S 24 37 13 20 1014.2 1013.6 0.0
01/02:00pm 28.3 21.9 5.2 23 12.0 S 28 44 15 24 1014.4 1013.8 0.0
01/01:30pm 27.3 22.1 7.2 28 10.7 S 24 35 13 19 1014.5 1013.9 0.0
01/01:00pm 26.3 21.2 7.8 31 9.9 S 24 35 13 19 1014.9 1014.3 0.0
01/12:30pm 25.8 20.5 8.3 33 9.4 S 26 35 14 19 1015.4 1014.8 0.0
01/12:00pm 25.3 21.4 8.7 35 9.0 S 19 32 10 17 1015.5 1014.9 0.0
01/11:30am 23.4 18.6 8.7 39 7.9 SSE 24 32 13 17 1016.0 1015.4 0.0
01/11:00am 22.7 18.3 9.1 42 7.3 SSE 22 28 12 15 1016.2 1015.6 0.0
01/10:30am 21.9 17.5 9.1 44 6.9 S 22 30 12 16 1016.2 1015.6 0.0
01/10:00am 20.9 15.9 9.5 48 6.1 SSE 26 33 14 18 1016.0 1015.3 0.0
01/09:30am 19.8 14.9 10.0 53 5.3 S 26 35 14 19 1016.2 1015.5 0.0
01/09:00am 19.2 14.7 10.2 56 4.8 S 24 33 13 18 1016.1 1015.4 0.0
01/08:30am 18.1 12.5 10.2 60 4.2 S 30 35 16 19 1015.5 1014.9 0.0
01/08:00am 17.4 13.0 10.5 64 3.7 S 24 30 13 16 1015.2 1014.6 0.0
01/07:30am 16.8 13.2 10.6 67 3.3 S 20 26 11 14 1014.6 1014.0 0.0
01/07:00am 16.5 12.6 10.8 69 3.1 S 22 33 12 18 1014.0 1013.4 0.0
01/06:30am 16.5 13.0 11.0 70 3.0 S 20 28 11 15 1013.6 1013.0 0.0
01/06:00am 16.8 13.6 11.3 70 3.0 S 19 24 10 13 1013.2 1012.6 0.0
01/05:30am 17.1 13.3 11.2 68 3.2 S 22 30 12 16 1012.8 1012.2 0.0
01/05:00am 17.5 12.9 11.1 66 3.5 S 26 33 14 18 1012.3 1011.7 0.0
01/04:30am 17.9 12.9 10.8 63 3.8 SSE 28 37 15 20 1011.9 1011.3 0.0
01/04:00am 18.3 12.4 10.4 60 4.2 SSE 32 43 17 23 1011.7 1011.1 0.0
01/03:30am 18.7 12.8 10.5 59 4.4 SSE 32 44 17 24 1011.7 1011.1 0.0
01/03:00am 19.2 14.0 10.2 56 4.9 SSE 28 39 15 21 1011.9 1011.3 0.0
01/02:30am 19.7 14.8 10.1 54 5.2 SSE 26 35 14 19 1012.0 1011.4 0.0
01/02:00am 20.2 15.7 10.0 52 5.5 SSE 24 33 13 18 1012.2 1011.6 0.0
01/01:30am 20.9 14.7 9.5 48 6.1 SSE 32 44 17 24 1012.3 1011.7 0.0
01/01:00am 21.7 16.1 8.6 43 6.9 SSE 28 37 15 20 1012.3 1011.7 0.0
01/12:30am 22.5 15.7 7.1 37 8.0 SSE 32 44 17 24 1012.6 1012.0 0.0
01/12:00am 23.3 16.3 6.1 33 8.8 SSE 32 48 17 26 1012.8 1012.2 0.0
 
Date/Time
CDT
Temp
°C
App
Temp
°C
Dew
Point
Rel
Hum
%
Delta-T
°C
Wind Press
QNH
hPa
Press
MSL
hPa
Rain
since 9 am
mm
Dir
 
Spd
km/h
Gust
km/h
Spd
kts
Gust
kts
31/11:59pm 23.7 17.2 6.5 33 8.9 SSE 30 48 16 26 1012.8 1012.2 0.0
31/11:30pm 24.5 17.4 5.3 29 9.8 SSE 32 41 17 22 1012.9 1012.3 0.0
31/11:00pm 25.8 18.8 4.3 25 10.8 SSE 30 44 16 24 1012.6 1012.0 0.0
31/10:30pm 26.9 20.9 5.2 25 11.2 SE 26 35 14 19 1012.2 1011.6 0.0
31/10:15pm 27.5 22.9 3.9 22 11.9 S 17 39 9 21 1011.8 1011.2 0.0
31/10:00pm 27.9 24.3 0.6 17 13.0 SSW 9 11 5 6 1011.4 1010.8 0.0
31/09:30pm 29.3 25.4 0.9 16 13.8 SSW 11 15 6 8 1011.0 1010.4 0.0
31/09:00pm 30.5 25.3 0.0 14 14.7 SSW 17 22 9 12 1010.8 1010.2 0.0
31/08:30pm 31.4 25.0 0.7 14 15.1 S 24 32 13 17 1010.5 1009.9 0.0
31/08:00pm 32.3 26.7 3.3 16 14.9 SSW 22 32 12 17 1010.0 1009.3 0.0
31/07:30pm 33.3 28.8 4.1 16 15.3 S 17 28 9 15 1009.7 1009.0 0.0
31/07:00pm 33.5 27.0 2.4 14 15.9 SSW 26 33 14 18 1009.5 1008.8 0.0
31/06:30pm 34.1 27.5 1.8 13 16.4 SSW 26 37 14 20 1009.3 1008.6 0.0
31/06:00pm 34.5 27.9 2.1 13 16.6 SW 26 35 14 19 1009.2 1008.5 0.0
31/05:30pm 34.7 30.2 4.3 15 16.1 S 17 32 9 17 1009.3 1008.6 0.0
31/05:00pm 35.0 29.8 3.5 14 16.5 SSW 20 33 11 18 1009.5 1008.8 0.0
31/04:30pm 34.3 29.6 3.0 14 16.2 SW 17 26 9 14 1009.8 1009.1 0.0
31/04:00pm 35.9 30.6 3.2 13 17.2 SSW 20 33 11 18 1010.1 1009.4 0.0
31/03:30pm 34.4 29.5 2.0 13 16.6 SW 17 30 9 16 1010.4 1009.8 0.0
31/03:00pm 34.5 30.4 2.1 13 16.6 W 13 20 7 11 1010.7 1010.1 0.0
31/02:30pm 33.9 29.9 2.7 14 16.1 WSW 13 24 7 13 1011.0 1010.4 0.0
31/02:00pm 33.0 28.9 2.0 14 15.7 W 13 20 7 11 1011.3 1010.7 0.0
31/01:30pm 32.4 29.1 2.5 15 15.2 NW 9 15 5 8 1011.6 1011.0 0.0
31/01:00pm 31.1 28.1 2.3 16 14.5 ESE 7 13 4 7 1012.1 1011.5 0.0
31/12:30pm 31.8 29.3 3.8 17 14.5 E 6 11 3 6 1012.5 1011.9 0.0
31/12:00pm 30.3 27.2 3.4 18 13.7 NW 9 17 5 9 1012.8 1012.2 0.0
31/11:30am 29.8 26.9 4.4 20 13.1 NE 9 17 5 9 1013.0 1012.4 0.0
31/11:00am 29.0 25.3 4.5 21 12.6 ENE 13 22 7 12 1013.0 1012.4 0.0
31/10:30am 28.0 24.4 5.0 23 11.9 E 13 22 7 12 1013.1 1012.5 0.0
31/10:00am 26.2 22.5 6.3 28 10.4 ESE 15 20 8 11 1012.9 1012.3 0.0
31/09:30am 24.8 21.3 7.4 33 9.2 SE 15 20 8 11 1012.9 1012.3 0.0
31/09:00am 23.1 19.2 7.2 36 8.3 SE 17 20 9 11 1012.7 1012.1 0.0
31/08:30am 21.9 17.8 7.7 40 7.4 SE 19 24 10 13 1012.5 1011.9 0.0
31/08:00am 20.7 16.6 7.7 43 6.7 SSE 19 24 10 13 1012.2 1011.6 0.0
31/07:30am 19.3 16.2 7.4 46 6.1 SSE 13 17 7 9 1011.8 1011.2 0.0
31/07:00am 18.5 15.3 6.7 46 5.9 SSE 13 15 7 8 1011.4 1010.8 0.0
31/06:30am 19.0 15.7 6.5 44 6.3 SSE 13 15 7 8 1011.2 1010.6 0.0
31/06:00am 19.7 16.0 6.1 41 6.8 SE 15 19 8 10 1010.8 1010.2 0.0
31/05:30am 20.2 16.0 5.8 39 7.2 SE 17 20 9 11 1010.5 1009.9 0.0
31/05:00am 20.4 16.6 5.6 38 7.4 SSE 15 17 8 9 1010.7 1010.1 0.0
31/04:30am 21.1 17.5 6.6 39 7.4 SSE 15 19 8 10 1010.7 1010.1 0.0
31/04:00am 21.6 17.5 6.3 37 7.8 SSE 17 20 9 11 1010.5 1009.9 0.0
31/03:30am 22.1 17.8 5.1 33 8.5 S 17 20 9 11 1010.6 1010.0 0.0
31/03:00am 22.7 18.9 3.8 29 9.2 S 13 17 7 9 1010.6 1010.0 0.0
31/02:30am 23.1 18.5 3.6 28 9.5 SSE 17 20 9 11 1010.5 1009.9 0.0
31/02:00am 23.8 18.7 3.2 26 10.0 SSE 19 26 10 14 1010.6 1010.0 0.0
31/01:30am 24.3 19.7 3.6 26 10.2 SSE 17 26 9 14 1010.5 1009.9 0.0
31/01:00am 25.3 20.1 3.3 24 10.8 SE 20 30 11 16 1010.5 1009.9 0.0
31/12:30am 25.9 20.9 4.4 25 10.9 SSE 20 26 11 14 1010.5 1009.9 0.0
31/12:00am 26.8 21.9 2.0 20 12.1 SE 17 20 9 11 1010.3 1009.6 0.0
 
Date/Time
CDT
Temp
°C
App
Temp
°C
Dew
Point
Rel
Hum
%
Delta-T
°C
Wind Press
QNH
hPa
Press
MSL
hPa
Rain
since 9 am
mm
Dir
 
Spd
km/h
Gust
km/h
Spd
kts
Gust
kts
30/11:30pm 27.7 22.4 -0.4 16 13.2 SE 17 20 9 11 1010.2 1009.5 0.0
30/11:00pm 28.3 22.5 0.1 16 13.4 SE 20 28 11 15 1010.1 1009.4 0.0
30/10:30pm 25.1 22.3 1.9 22 11.1 SE 6 7 3 4 1009.9 1009.2 0.0
30/10:00pm 26.8 23.8 2.0 20 12.0 SSE 7 9 4 5 1009.8 1009.1 0.0
30/09:30pm 29.3 25.4 0.9 16 13.8 SSE 11 13 6 7 1009.6 1008.9 0.0
30/09:00pm 30.4 26.5 0.9 15 14.4 SSE 11 15 6 8 1009.5 1008.8 0.0
30/08:30pm 31.6 26.9 0.9 14 15.1 SSE 15 20 8 11 1009.2 1008.5 0.0
30/08:00pm 32.8 27.2 -0.3 12 16.1 SSE 19 28 10 15 1009.2 1008.5 0.0
30/07:30pm 33.6 28.1 0.3 12 16.5 S 19 24 10 13 1008.9 1008.2 0.0
30/07:00pm 34.0 27.4 -0.6 11 16.9 SSE 24 32 13 17 1008.8 1008.1 0.0
30/06:30pm 34.4 27.8 -0.3 11 17.1 SSE 24 35 13 19 1008.6 1007.9 0.0
30/06:00pm 34.8 29.8 1.2 12 17.0 SSE 17 22 9 12 1008.5 1007.8 0.0
30/05:30pm 35.4 30.3 0.5 11 17.5 SW 17 26 9 14 1008.7 1008.0 0.0
30/05:00pm 35.2 30.0 0.3 11 17.4 SSW 17 30 9 16 1008.8 1008.1 0.0
30/04:30pm 35.4 30.6 0.5 11 17.5 SW 15 20 8 11 1009.1 1008.4 0.0
30/04:00pm 34.9 29.7 0.1 11 17.3 SW 17 30 9 16 1009.3 1008.6 0.0
30/03:30pm 34.5 30.2 1.0 12 16.9 S 13 30 7 16 1009.6 1008.9 0.0
30/03:00pm 34.0 29.8 1.7 13 16.4 SE 13 24 7 13 1010.0 1009.3 0.0
30/02:30pm 34.0 28.5 1.7 13 16.4 S 20 32 11 17 1010.6 1010.0 0.0
30/02:00pm 34.3 31.1 3.0 14 16.2 S 9 20 5 11 1011.0 1010.4 0.0
30/01:30pm 34.1 31.0 3.8 15 15.9 SSW 9 17 5 9 1011.4 1010.8 0.0
30/01:00pm 33.6 31.6 4.3 16 15.4 SE 4 11 2 6 1011.9 1011.3 0.0
30/12:30pm 32.8 29.7 3.7 16 15.1 SSE 9 13 5 7 1012.2 1011.6 0.0
30/12:00pm 32.2 28.6 3.2 16 14.9 NNE 11 19 6 10 1012.6 1012.0 0.0
30/11:30am 31.2 27.5 2.4 16 14.5 ENE 11 17 6 9 1012.9 1012.3 0.0
30/11:00am 30.8 27.6 2.9 17 14.1 ENE 9 13 5 7 1013.1 1012.5 0.0
30/10:30am 29.6 26.0 2.8 18 13.5 E 11 20 6 11 1013.1 1012.5 0.0
30/10:00am 29.1 24.3 2.4 18 13.3 E 17 24 9 13 1013.2 1012.6 0.0
30/09:30am 28.5 23.3 2.7 19 12.8 E 19 26 10 14 1013.2 1012.6 0.0
30/09:00am 27.6 23.2 2.6 20 12.3 E 15 20 8 11 1013.1 1012.5 0.0
30/08:30am 26.2 22.3 3.4 23 11.3 ESE 13 19 7 10 1012.9 1012.3 0.0
30/08:00am 23.5 21.1 4.5 29 9.4 SE 6 9 3 5 1012.6 1012.0 0.0
30/07:30am 20.9 18.0 4.9 35 7.9 SSE 9 11 5 6 1012.3 1011.7 0.0
30/07:00am 19.5 16.8 5.6 40 6.9 SSE 9 9 5 5 1012.2 1011.6 0.0
30/06:30am 19.9 17.2 5.5 39 7.1 SSE 9 11 5 6 1011.8 1011.2 0.0
30/06:00am 21.4 17.8 4.9 34 8.2 SE 13 15 7 8 1011.3 1010.7 0.0
30/05:30am 21.7 18.1 5.2 34 8.2 SE 13 15 7 8 1011.2 1010.6 0.0
30/05:00am 22.2 18.7 5.6 34 8.4 SE 13 17 7 9 1011.0 1010.4 0.0
30/04:30am 22.1 18.7 5.9 35 8.2 SE 13 15 7 8 1010.8 1010.2 0.0
30/04:00am 22.6 18.8 6.0 34 8.4 SE 15 17 8 9 1010.7 1010.1 0.0
30/03:30am 23.3 19.6 6.1 33 8.8 SE 15 19 8 10 1010.7 1010.1 0.0
30/03:00am 23.8 20.1 6.1 32 9.1 SSE 15 19 8 10 1010.6 1010.0 0.0
30/02:30am 24.2 20.4 6.0 31 9.4 SSE 15 20 8 11 1010.7 1010.1 0.0
30/02:00am 24.9 20.4 6.1 30 9.7 SSE 19 24 10 13 1010.8 1010.2 0.0
30/01:30am 25.3 20.9 6.5 30 9.8 SSE 19 24 10 13 1011.0 1010.4 0.0
30/01:00am 26.0 21.0 6.6 29 10.2 SSE 22 30 12 16 1010.9 1010.3 0.0
30/12:30am 25.9 21.3 5.5 27 10.5 SSE 19 24 10 13 1010.9 1010.3 0.0
30/12:00am 25.2 21.5 4.3 26 10.5 SSE 13 17 7 9 1010.9 1010.3 0.0
 
Date/Time
CDT
Temp
°C
App
Temp
°C
Dew
Point
Rel
Hum
%
Delta-T
°C
Wind Press
QNH
hPa
Press
MSL
hPa
Rain
since 9 am
mm
Dir
 
Spd
km/h
Gust
km/h
Spd
kts
Gust
kts
29/11:30pm 23.1 20.8 4.6 30 9.2 S 6 7 3 4 1010.9 1010.3 0.0
29/11:00pm 25.1 22.3 3.1 24 10.8 S 7 9 4 5 1011.1 1010.5 0.0
29/10:30pm 25.6 22.4 2.9 23 11.1 S 9 11 5 6 1011.1 1010.5 0.0
29/10:00pm 26.0 24.6 3.3 23 11.2 CALM 0 0 0 0 1011.2 1010.6 0.0
29/09:30pm 28.1 24.8 2.3 19 12.7 S 9 9 5 5 1011.0 1010.4 0.0
29/09:00pm 30.0 26.3 2.3 17 13.8 S 11 15 6 8 1010.7 1010.1 0.0
29/08:30pm 31.1 26.6 2.3 16 14.5 S 15 19 8 10 1010.4 1009.8 0.0
29/08:00pm 32.4 27.0 2.5 15 15.2 S 20 30 11 16 1010.1 1009.4 0.0
29/07:30pm 33.1 27.8 3.0 15 15.5 S 20 28 11 15 1010.0 1009.3 0.0

Other Formats:

Comma delimited format used in spreadsheet applications
http://www.bom.gov.au/fwo/IDS60801/IDS60801.95658.axf

JavaScript Object Notation format (JSON) in row-major order
http://www.bom.gov.au/fwo/IDS60801/IDS60801.95658.json